Time;durP1;ratioP1;P1;durP2;ratioP2;P2;SDS_P1;SDS_P2;PMS_P1;PMS_P2;Temp;Humidity;BMP_temperature;BMP_pressure;BME280_temperature;BME280_humidity;BME280_pressure;Samples;Min_cycle;Max_cycle;Signal;HPM_P1;HPM_P2
2022/01/04 00:01:33;;;;;;;19.50;14.07;;;8.30;99.90;;;;;;5093114;28;20036;-78
2022/01/04 00:03:59;;;;;;;22.35;15.20;;;8.30;99.90;;;;;;5099951;28;20051;-78
2022/01/04 00:06:25;;;;;;;21.00;15.20;;;8.30;99.90;;;;;;5093271;28;20394;-78
2022/01/04 00:08:51;;;;;;;21.40;15.20;;;8.30;99.90;;;;;;5093294;28;20039;-78
2022/01/04 00:11:31;;;;;;;23.10;16.15;;;8.30;99.90;;;;;;5092869;28;20139;-79
2022/01/04 00:13:56;;;;;;;25.10;16.38;;;8.30;99.90;;;;;;5092687;28;20040;-76
2022/01/04 00:16:22;;;;;;;24.38;16.38;;;8.20;99.90;;;;;;5100995;28;20046;-77
2022/01/04 00:18:48;;;;;;;20.83;16.17;;;8.20;99.90;;;;;;5092582;28;20481;-79
2022/01/04 00:21:14;;;;;;;25.92;17.83;;;8.10;99.90;;;;;;5093519;28;20044;-78
2022/01/04 00:23:40;;;;;;;22.95;17.88;;;8.00;99.90;;;;;;5107284;28;20040;-78
2022/01/04 00:26:05;;;;;;;24.48;18.13;;;8.00;99.90;;;;;;5099242;28;20508;-78
2022/01/04 00:28:31;;;;;;;25.13;18.55;;;7.90;99.90;;;;;;5093185;28;20040;-78
2022/01/04 00:30:57;;;;;;;23.90;18.25;;;7.90;99.90;;;;;;5099493;28;20039;-73
2022/01/04 00:33:23;;;;;;;26.90;18.85;;;7.90;99.90;;;;;;5103240;28;20079;-78
2022/01/04 00:35:49;;;;;;;28.35;20.02;;;7.90;99.90;;;;;;5092305;28;20496;-78
2022/01/04 00:38:16;;;;;;;28.85;19.73;;;7.90;99.90;;;;;;5092247;28;20043;-78
2022/01/04 00:40:41;;;;;;;28.02;20.45;;;7.80;99.90;;;;;;5092922;28;20040;-78
2022/01/04 00:43:07;;;;;;;29.25;20.92;;;7.80;99.90;;;;;;5093416;28;20043;-78
2022/01/04 00:45:36;;;;;;;29.77;21.15;;;7.80;99.90;;;;;;5094616;28;20048;-78
2022/01/04 00:50:33;;;;;;;30.80;21.20;;;7.70;99.90;;;;;;5075224;28;20045;-78
2022/01/04 00:53:00;;;;;;;32.08;21.92;;;7.70;99.90;;;;;;5112130;28;20048;-73
2022/01/04 00:55:27;;;;;;;31.92;22.55;;;7.60;99.90;;;;;;5112444;28;20104;-78
2022/01/04 00:57:53;;;;;;;31.90;23.05;;;7.60;99.90;;;;;;5072439;28;20049;-78
2022/01/04 01:00:19;;;;;;;31.98;22.92;;;7.60;99.90;;;;;;5075613;28;20118;-78
2022/01/04 01:02:45;;;;;;;35.28;23.58;;;7.50;99.90;;;;;;5093883;28;20416;-78
2022/01/04 01:05:12;;;;;;;33.28;23.33;;;7.50;99.90;;;;;;5094647;28;20055;-78
2022/01/04 01:07:38;;;;;;;34.25;23.88;;;7.50;99.90;;;;;;5096963;28;20051;-78
2022/01/04 01:10:41;;;;;;;32.08;23.30;;;7.50;99.90;;;;;;5115039;28;20060;-77
2022/01/04 01:13:08;;;;;;;36.05;24.77;;;7.50;99.90;;;;;;5113366;28;20253;-78
2022/01/04 01:15:34;;;;;;;34.05;23.58;;;7.40;99.90;;;;;;5096286;28;20052;-77
2022/01/04 01:18:00;;;;;;;36.78;24.85;;;7.50;99.90;;;;;;5096682;28;20055;-78
2022/01/04 01:20:26;;;;;;;37.78;24.92;;;7.50;99.90;;;;;;5096131;28;20048;-78
2022/01/04 01:22:52;;;;;;;36.80;25.35;;;7.50;99.90;;;;;;5096408;28;20040;-78
2022/01/04 01:25:20;;;;;;;34.67;24.70;;;7.50;99.90;;;;;;5107802;28;20450;-78
2022/01/04 01:27:46;;;;;;;37.72;25.90;;;7.50;99.90;;;;;;5099077;28;20089;-78
2022/01/04 01:30:13;;;;;;;37.92;26.17;;;7.60;99.90;;;;;;5111636;28;20047;-78
2022/01/04 01:32:39;;;;;;;36.25;25.70;;;7.60;99.90;;;;;;5115958;28;20055;-77
2022/01/04 01:35:05;;;;;;;37.58;26.30;;;7.60;99.90;;;;;;5115804;27;20101;-73
2022/01/04 01:37:31;;;;;;;38.85;26.48;;;7.60;99.90;;;;;;5116347;28;20488;-78
2022/01/04 01:39:57;;;;;;;39.25;26.52;;;7.60;99.90;;;;;;5096251;28;20048;-78
2022/01/04 01:42:23;;;;;;;37.45;27.45;;;7.60;99.90;;;;;;5095480;28;20048;-78
2022/01/04 01:44:49;;;;;;;41.03;27.63;;;7.60;99.90;;;;;;5113503;28;20048;-78
2022/01/04 01:47:15;;;;;;;41.97;27.77;;;7.70;99.90;;;;;;5115794;28;20116;-78
2022/01/04 01:49:40;;;;;;;39.40;26.75;;;7.70;99.90;;;;;;5099910;28;20055;-78
2022/01/04 01:52:07;;;;;;;40.20;27.80;;;7.70;99.90;;;;;;5095244;28;20036;-73
2022/01/04 01:54:33;;;;;;;37.33;25.98;;;7.70;99.90;;;;;;5095674;28;20048;-78
2022/01/04 01:56:58;;;;;;;38.58;27.33;;;7.70;99.90;;;;;;5095893;28;20517;-78
2022/01/04 01:59:24;;;;;;;34.95;24.77;;;7.70;99.90;;;;;;5107531;28;20122;-78
2022/01/04 02:01:51;;;;;;;34.55;25.25;;;7.70;99.90;;;;;;5116167;28;20495;-78
2022/01/04 02:04:16;;;;;;;39.80;27.48;;;7.60;99.90;;;;;;5102454;28;20377;-77
2022/01/04 02:06:42;;;;;;;35.92;25.58;;;7.60;99.90;;;;;;5096696;28;20047;-78
2022/01/04 02:09:08;;;;;;;36.42;25.58;;;7.60;99.90;;;;;;5107428;28;20039;-76
2022/01/04 02:11:34;;;;;;;35.60;26.67;;;7.60;99.90;;;;;;5115391;28;20051;-78
2022/01/04 02:14:02;;;;;;;35.83;26.33;;;7.50;99.90;;;;;;5107449;28;20554;-78
2022/01/04 02:16:30;;;;;;;40.13;26.98;;;7.50;99.90;;;;;;5093341;28;20543;-78
2022/01/04 02:19:04;;;;;;;37.45;26.52;;;7.50;99.90;;;;;;5095478;28;20086;-78
2022/01/04 02:21:31;;;;;;;35.65;27.77;;;7.40;99.90;;;;;;5094839;28;20114;-78
2022/01/04 02:23:57;;;;;;;43.20;28.10;;;7.40;99.90;;;;;;5105040;28;20047;-78
2022/01/04 02:26:23;;;;;;;36.85;27.10;;;7.40;99.90;;;;;;5115083;28;20059;-78
2022/01/04 02:28:50;;;;;;;36.22;27.33;;;7.40;99.90;;;;;;5114493;28;20036;-78
2022/01/04 02:31:16;;;;;;;37.88;27.50;;;7.30;99.90;;;;;;5114829;28;20043;-77
2022/01/04 02:33:42;;;;;;;40.42;27.75;;;7.40;99.90;;;;;;5106086;28;20052;-78
2022/01/04 02:36:08;;;;;;;38.75;28.50;;;7.40;99.90;;;;;;5094870;28;20040;-78
2022/01/04 02:38:34;;;;;;;36.72;27.75;;;7.30;99.90;;;;;;5094372;28;20070;-78
2022/01/04 02:41:00;;;;;;;41.17;29.73;;;7.40;99.90;;;;;;5094939;28;20500;-78
2022/01/04 02:43:26;;;;;;;41.22;29.92;;;7.30;99.90;;;;;;5099137;28;20079;-78
2022/01/04 02:45:52;;;;;;;48.33;29.40;;;7.40;99.90;;;;;;5094831;28;20087;-78
2022/01/04 02:48:17;;;;;;;42.75;30.05;;;7.30;99.90;;;;;;5094495;28;20048;-78
2022/01/04 02:50:43;;;;;;;42.45;29.92;;;7.40;99.90;;;;;;5094609;28;20481;-78
2022/01/04 02:53:09;;;;;;;44.92;29.98;;;7.40;99.90;;;;;;5097601;28;20054;-78
2022/01/04 02:55:35;;;;;;;42.22;29.75;;;7.40;99.90;;;;;;5114414;28;20047;-78
2022/01/04 02:58:00;;;;;;;42.35;29.52;;;7.40;99.90;;;;;;5114306;28;20048;-78
2022/01/04 03:00:28;;;;;;;46.85;29.77;;;7.40;99.90;;;;;;5111963;27;20140;-78
2022/01/04 03:02:54;;;;;;;40.67;28.70;;;7.40;99.90;;;;;;5095186;28;20048;-78
2022/01/04 03:05:20;;;;;;;43.67;29.83;;;7.40;99.90;;;;;;5114225;28;20079;-77
2022/01/04 03:07:46;;;;;;;41.03;30.08;;;7.40;99.90;;;;;;5115073;28;20079;-78
2022/01/04 03:10:12;;;;;;;44.38;30.63;;;7.40;99.90;;;;;;5094309;28;20142;-78
2022/01/04 03:12:42;;;;;;;44.28;30.48;;;7.50;99.90;;;;;;5093423;28;20625;-78
2022/01/04 03:15:08;;;;;;;42.35;30.33;;;7.50;99.90;;;;;;5105526;28;20043;-78
2022/01/04 03:17:34;;;;;;;46.08;30.42;;;7.50;99.90;;;;;;5093539;28;20084;-78
2022/01/04 03:19:59;;;;;;;42.83;29.65;;;7.60;99.90;;;;;;5110974;28;20074;-79
2022/01/04 03:22:25;;;;;;;40.67;29.05;;;7.60;99.90;;;;;;5103778;28;20040;-78
2022/01/04 03:24:51;;;;;;;38.03;28.40;;;7.70;99.90;;;;;;5095356;28;20048;-79
2022/01/04 03:27:17;;;;;;;40.00;28.52;;;7.70;99.90;;;;;;5094537;28;20040;-78
2022/01/04 03:29:43;;;;;;;41.75;29.00;;;7.70;99.90;;;;;;5113914;28;20047;-78
2022/01/04 03:32:09;;;;;;;40.95;28.83;;;7.70;99.90;;;;;;5110947;28;20048;-78
2022/01/04 03:34:34;;;;;;;40.28;28.45;;;7.70;99.90;;;;;;5107902;28;20131;-77
2022/01/04 03:37:00;;;;;;;44.60;29.50;;;7.70;99.90;;;;;;5094110;28;20512;-78
2022/01/04 03:39:26;;;;;;;39.50;27.60;;;7.70;99.90;;;;;;5094228;28;20052;-77
2022/01/04 03:41:51;;;;;;;38.33;28.50;;;7.70;99.90;;;;;;5093758;28;20047;-78
2022/01/04 03:44:20;;;;;;;40.80;29.20;;;7.70;99.90;;;;;;5093481;28;20538;-78
2022/01/04 03:46:51;;;;;;;40.83;28.65;;;7.70;99.90;;;;;;5093630;28;20040;-78
2022/01/04 03:49:17;;;;;;;41.40;29.77;;;7.70;99.90;;;;;;5108921;28;20047;-78
2022/01/04 03:51:43;;;;;;;44.10;29.63;;;7.70;99.90;;;;;;5113306;28;20039;-78
2022/01/04 03:54:09;;;;;;;42.75;29.10;;;7.80;99.90;;;;;;5099170;28;20036;-79
2022/01/04 03:56:35;;;;;;;46.25;29.98;;;7.80;99.90;;;;;;5092902;28;20552;-78
2022/01/04 03:59:01;;;;;;;43.70;29.55;;;7.70;99.90;;;;;;5093533;28;20047;-78
2022/01/04 04:01:27;;;;;;;41.75;29.35;;;7.80;99.90;;;;;;5093996;28;20044;-78
2022/01/04 04:03:53;;;;;;;38.55;27.98;;;7.80;99.90;;;;;;5102691;28;20474;-78
2022/01/04 04:06:18;;;;;;;43.97;29.08;;;7.80;99.90;;;;;;5093425;28;20039;-78
2022/01/04 04:08:44;;;;;;;40.47;30.80;;;7.80;99.90;;;;;;5092497;28;20040;-78
2022/01/04 04:11:11;;;;;;;40.72;29.13;;;7.80;99.90;;;;;;5092784;28;20080;-78
2022/01/04 04:13:36;;;;;;;41.00;30.33;;;7.80;99.90;;;;;;5093022;28;20051;-78
2022/01/04 04:16:02;;;;;;;40.63;29.05;;;7.80;99.90;;;;;;5092750;28;20039;-78
2022/01/04 04:18:28;;;;;;;38.67;28.90;;;7.90;99.90;;;;;;5092482;28;20047;-77
2022/01/04 04:20:54;;;;;;;40.70;28.83;;;7.90;99.90;;;;;;5093139;28;20040;-78
2022/01/04 04:23:20;;;;;;;43.40;30.05;;;7.90;99.90;;;;;;5099866;28;20118;-78
2022/01/04 04:25:46;;;;;;;41.60;29.40;;;7.90;99.90;;;;;;5101890;28;20219;-78
2022/01/04 04:28:12;;;;;;;41.88;30.33;;;7.90;99.90;;;;;;5097299;28;20496;-78
2022/01/04 04:30:37;;;;;;;43.65;29.80;;;7.90;99.90;;;;;;5112643;28;20078;-78
2022/01/04 04:33:04;;;;;;;40.42;29.25;;;7.90;99.90;;;;;;5108606;28;20036;-78
2022/01/04 04:35:31;;;;;;;37.40;28.75;;;7.90;99.90;;;;;;5090660;28;20044;-78
2022/01/04 04:37:58;;;;;;;39.53;28.20;;;7.90;99.90;;;;;;5092353;28;20501;-78
2022/01/04 04:40:24;;;;;;;38.33;28.00;;;7.90;99.90;;;;;;5092835;28;20090;-78
2022/01/04 04:42:50;;;;;;;34.58;28.20;;;7.90;99.90;;;;;;5093242;28;20059;-78
2022/01/04 04:45:15;;;;;;;36.05;28.48;;;7.90;99.90;;;;;;5093046;28;20052;-78
2022/01/04 04:47:41;;;;;;;38.30;28.95;;;8.00;99.90;;;;;;5092833;28;20048;-78
2022/01/04 04:50:07;;;;;;;36.70;27.58;;;7.90;99.90;;;;;;5092409;28;20130;-78
2022/01/04 04:52:33;;;;;;;37.10;27.88;;;7.90;99.90;;;;;;5095408;28;20131;-77
2022/01/04 04:54:59;;;;;;;37.20;28.17;;;7.90;99.90;;;;;;5092662;28;20529;-78
2022/01/04 04:57:24;;;;;;;36.13;27.77;;;8.00;99.90;;;;;;5093364;28;20048;-78
2022/01/04 04:59:50;;;;;;;35.38;26.98;;;8.00;99.90;;;;;;5091995;28;20277;-78
2022/01/04 05:02:16;;;;;;;35.60;27.50;;;8.00;99.90;;;;;;5093658;28;20051;-78
2022/01/04 05:04:42;;;;;;;38.92;27.92;;;8.00;99.90;;;;;;5091702;28;20469;-77
2022/01/04 05:07:08;;;;;;;38.83;29.85;;;8.00;99.90;;;;;;5103065;28;20044;-79
2022/01/04 05:09:33;;;;;;;38.75;27.83;;;8.00;99.90;;;;;;5091805;28;20052;-78
2022/01/04 05:11:59;;;;;;;38.38;28.15;;;8.10;99.90;;;;;;5103505;28;20052;-80
2022/01/04 05:14:25;;;;;;;43.08;28.65;;;8.10;99.90;;;;;;5107776;28;20126;-75
2022/01/04 05:16:50;;;;;;;40.25;29.83;;;8.10;99.90;;;;;;5112208;28;20047;-75
2022/01/04 05:19:17;;;;;;;42.92;31.42;;;8.10;99.90;;;;;;5094167;28;20040;-74
2022/01/04 05:21:43;;;;;;;38.15;29.35;;;8.00;99.90;;;;;;5091853;28;20048;-73
2022/01/04 05:24:08;;;;;;;43.17;30.15;;;8.10;99.90;;;;;;5092395;28;20473;-74
2022/01/04 05:26:35;;;;;;;42.95;29.35;;;8.00;99.90;;;;;;5091654;28;20052;-71
2022/01/04 05:29:02;;;;;;;42.65;29.75;;;8.00;99.90;;;;;;5090798;28;20122;-74
2022/01/04 05:31:27;;;;;;;40.35;27.10;;;8.00;99.90;;;;;;5092411;28;20079;-74
2022/01/04 05:33:53;;;;;;;42.22;29.17;;;8.00;99.90;;;;;;5091444;28;20766;-74
2022/01/04 05:36:19;;;;;;;43.13;29.02;;;8.00;99.90;;;;;;5092267;28;20131;-74
2022/01/04 05:38:47;;;;;;;41.00;29.42;;;8.00;99.90;;;;;;5091513;28;20043;-73
2022/01/04 05:41:13;;;;;;;40.53;29.63;;;8.00;99.90;;;;;;5092211;28;20113;-74
2022/01/04 05:43:38;;;;;;;42.60;30.23;;;8.00;99.90;;;;;;5091567;28;20485;-73
2022/01/04 05:46:04;;;;;;;40.42;29.52;;;8.00;99.90;;;;;;5092286;28;20036;-73
2022/01/04 05:48:30;;;;;;;39.92;30.17;;;8.00;99.90;;;;;;5092140;28;20040;-73
2022/01/04 05:50:55;;;;;;;41.28;28.33;;;8.00;99.90;;;;;;5093894;28;20040;-73
2022/01/04 05:53:21;;;;;;;40.33;28.52;;;8.00;99.90;;;;;;5095850;28;20040;-73
2022/01/04 05:55:47;;;;;;;39.63;29.58;;;8.00;99.90;;;;;;5077079;28;20083;-73
2022/01/04 05:58:13;;;;;;;36.47;29.00;;;8.00;99.90;;;;;;5094574;28;20044;-73
2022/01/04 06:00:39;;;;;;;40.55;29.50;;;8.00;99.90;;;;;;5094827;28;20051;-72
2022/01/04 06:03:05;;;;;;;38.88;29.75;;;8.00;99.90;;;;;;5095679;28;20272;-73
2022/01/04 06:05:31;;;;;;;39.88;28.80;;;8.00;99.90;;;;;;5095720;28;20083;-73
2022/01/04 06:07:57;;;;;;;39.53;29.45;;;8.00;99.90;;;;;;5095042;28;20075;-73
2022/01/04 06:10:23;;;;;;;42.00;29.45;;;8.10;99.90;;;;;;5094853;28;20082;-73
2022/01/04 06:15:15;;;;;;;38.75;28.52;;;8.00;99.90;;;;;;5095461;28;20055;-73
2022/01/04 06:17:47;;;;;;;42.63;29.83;;;8.00;99.90;;;;;;5094782;28;20048;-72
2022/01/04 06:20:15;;;;;;;39.40;29.75;;;8.00;99.90;;;;;;5094694;28;20114;-74
2022/01/04 06:22:42;;;;;;;43.55;29.35;;;7.90;99.90;;;;;;5094486;28;20036;-71
2022/01/04 06:25:11;;;;;;;40.00;28.55;;;7.90;99.90;;;;;;5095302;28;20141;-74
2022/01/04 06:27:36;;;;;;;40.00;29.05;;;8.00;99.90;;;;;;5095318;28;20048;-74
2022/01/04 06:30:04;;;;;;;40.72;29.20;;;8.00;99.90;;;;;;5094623;28;20527;-74
2022/01/04 06:32:30;;;;;;;43.80;29.88;;;8.00;99.90;;;;;;5094792;28;20051;-74
2022/01/04 06:34:55;;;;;;;46.00;30.02;;;8.00;99.90;;;;;;5094527;28;20504;-74
2022/01/04 06:37:21;;;;;;;41.00;30.63;;;8.00;99.90;;;;;;5095040;28;20043;-74
2022/01/04 06:39:47;;;;;;;43.53;31.52;;;8.00;99.90;;;;;;5094433;28;20048;-73
2022/01/04 06:42:13;;;;;;;42.33;29.98;;;8.00;99.90;;;;;;5095140;28;20511;-74
2022/01/04 06:44:41;;;;;;;45.28;30.05;;;8.00;99.90;;;;;;5094869;28;20093;-73
2022/01/04 06:47:07;;;;;;;39.45;29.77;;;8.00;99.90;;;;;;5094118;28;20135;-74
2022/01/04 06:49:33;;;;;;;44.83;31.13;;;8.00;99.90;;;;;;5094780;28;20091;-74
2022/01/04 06:51:59;;;;;;;40.40;29.75;;;8.00;99.90;;;;;;5093674;28;20063;-73
2022/01/04 06:54:25;;;;;;;39.47;29.80;;;8.00;99.90;;;;;;5094799;28;20052;-74
2022/01/04 06:56:51;;;;;;;38.03;29.08;;;8.00;99.90;;;;;;5093167;28;20412;-74
2022/01/04 06:59:17;;;;;;;39.72;28.60;;;8.00;99.90;;;;;;5094620;28;20124;-74
2022/01/04 07:01:44;;;;;;;38.65;29.20;;;7.90;99.90;;;;;;5093497;28;20115;-72
2022/01/04 07:04:10;;;;;;;39.65;29.75;;;8.00;99.90;;;;;;5092464;28;20078;-74
2022/01/04 07:06:36;;;;;;;40.03;29.60;;;7.90;99.90;;;;;;5094510;28;20083;-74
2022/01/04 07:09:04;;;;;;;38.30;28.60;;;7.90;99.90;;;;;;5093829;28;20050;-74
2022/01/04 07:11:30;;;;;;;40.08;29.20;;;7.90;99.90;;;;;;5093901;28;20091;-74
2022/01/04 07:13:55;;;;;;;39.55;27.85;;;7.90;99.90;;;;;;5093383;28;20094;-73
2022/01/04 07:16:21;;;;;;;36.47;28.42;;;7.90;99.90;;;;;;5094154;28;20143;-74
2022/01/04 07:18:49;;;;;;;38.47;28.60;;;7.90;99.90;;;;;;5093469;28;20089;-72
2022/01/04 07:21:16;;;;;;;37.92;28.25;;;7.90;99.90;;;;;;5094173;28;20040;-74
2022/01/04 07:23:42;;;;;;;37.58;28.02;;;7.90;99.90;;;;;;5094231;28;20048;-74
2022/01/04 07:26:14;;;;;;;37.35;28.33;;;7.90;99.90;;;;;;5093463;28;20048;-74
2022/01/04 07:28:41;;;;;;;39.97;28.50;;;7.90;99.90;;;;;;5094052;28;20048;-74
2022/01/04 07:31:07;;;;;;;39.60;28.50;;;7.90;99.90;;;;;;5091729;28;20048;-74
2022/01/04 07:33:33;;;;;;;39.42;28.40;;;7.90;99.90;;;;;;5093898;28;20048;-74
2022/01/04 07:35:59;;;;;;;38.55;29.30;;;7.90;99.90;;;;;;5092150;28;20047;-74
2022/01/04 07:38:24;;;;;;;38.80;29.58;;;8.00;99.90;;;;;;5093859;28;20398;-74
2022/01/04 07:40:50;;;;;;;38.38;28.88;;;7.90;99.90;;;;;;5091898;28;20127;-71
2022/01/04 07:43:16;;;;;;;38.13;28.05;;;7.90;99.90;;;;;;5093391;28;20159;-74
2022/01/04 07:45:42;;;;;;;36.22;28.75;;;7.90;99.90;;;;;;5093759;28;20051;-74
2022/01/04 07:48:10;;;;;;;40.70;29.58;;;7.90;99.90;;;;;;5093083;28;20055;-74
2022/01/04 07:50:40;;;;;;;42.22;30.63;;;7.90;99.90;;;;;;5092678;28;20432;-74
2022/01/04 07:53:07;;;;;;;43.92;29.67;;;7.90;99.90;;;;;;5092727;28;20128;-74
2022/01/04 07:55:33;;;;;;;37.45;29.48;;;7.90;99.90;;;;;;5093574;28;20131;-74
2022/01/04 07:57:59;;;;;;;41.78;31.00;;;7.90;99.90;;;;;;5093014;28;20088;-74
2022/01/04 08:00:26;;;;;;;40.28;30.38;;;8.00;99.90;;;;;;5093495;28;20525;-74
2022/01/04 08:02:52;;;;;;;42.40;30.10;;;8.00;99.90;;;;;;5092828;28;20048;-72
2022/01/04 08:05:18;;;;;;;40.67;29.60;;;8.00;99.90;;;;;;5093369;28;20075;-74
2022/01/04 08:07:44;;;;;;;41.28;30.27;;;8.00;99.90;;;;;;5093358;28;20519;-74
2022/01/04 08:10:10;;;;;;;41.95;30.17;;;8.00;99.90;;;;;;5092515;28;20439;-74
2022/01/04 08:12:36;;;;;;;39.83;30.60;;;8.00;99.90;;;;;;5092512;28;20044;-74
2022/01/04 08:15:06;;;;;;;39.97;29.50;;;8.00;99.90;;;;;;5092214;28;20066;-73
2022/01/04 08:17:32;;;;;;;41.30;30.80;;;8.00;99.90;;;;;;5093177;28;20051;-74
2022/01/04 08:19:59;;;;;;;39.88;29.92;;;8.00;99.90;;;;;;5092528;28;20051;-74
2022/01/04 08:22:31;;;;;;;37.42;27.98;;;8.00;99.90;;;;;;5093099;28;20101;-74
2022/01/04 08:24:57;;;;;;;40.50;29.40;;;8.00;99.90;;;;;;5092253;28;20040;-73
2022/01/04 08:27:23;;;;;;;39.20;28.70;;;8.00;99.90;;;;;;5092981;28;20104;-74
2022/01/04 08:29:48;;;;;;;40.65;30.10;;;8.00;99.90;;;;;;5092968;28;20051;-74
2022/01/04 08:32:15;;;;;;;39.47;30.08;;;8.00;99.90;;;;;;5092324;28;20641;-74
2022/01/04 08:34:42;;;;;;;42.05;30.85;;;7.90;99.90;;;;;;5092626;28;20055;-74
2022/01/04 08:37:07;;;;;;;39.80;30.25;;;7.90;99.90;;;;;;5092240;28;20080;-73
2022/01/04 08:39:33;;;;;;;42.58;31.58;;;7.90;99.90;;;;;;5093127;28;20125;-73
2022/01/04 08:42:01;;;;;;;40.55;31.33;;;7.90;99.90;;;;;;5092214;28;20477;-73
2022/01/04 08:44:28;;;;;;;38.95;29.45;;;7.90;99.90;;;;;;5092481;28;20070;-74
2022/01/04 08:46:53;;;;;;;41.42;31.08;;;7.90;99.90;;;;;;5092991;28;20050;-74
2022/01/04 08:49:19;;;;;;;42.30;31.23;;;7.90;99.90;;;;;;5092169;28;20044;-74
2022/01/04 08:51:46;;;;;;;41.28;30.38;;;8.00;99.90;;;;;;5092595;28;20568;-74
2022/01/04 08:54:12;;;;;;;40.92;30.33;;;8.00;99.90;;;;;;5091778;28;20154;-74
2022/01/04 08:56:38;;;;;;;42.63;31.02;;;8.00;99.90;;;;;;5072462;28;20051;-74
2022/01/04 08:59:05;;;;;;;41.55;31.10;;;8.00;99.90;;;;;;5071562;28;20063;-73
2022/01/04 09:01:32;;;;;;;41.50;30.80;;;8.00;99.90;;;;;;5071183;28;20052;-75
2022/01/04 09:03:58;;;;;;;41.42;31.27;;;8.00;99.90;;;;;;5072378;28;20056;-74
2022/01/04 09:06:25;;;;;;;40.60;30.55;;;8.00;99.90;;;;;;5088212;28;20086;-74
2022/01/04 09:08:54;;;;;;;42.97;31.13;;;8.10;99.90;;;;;;5092464;28;20481;-74
2022/01/04 09:11:21;;;;;;;44.53;31.93;;;8.10;99.90;;;;;;5090613;28;20485;-75
2022/01/04 09:13:49;;;;;;;39.65;31.08;;;8.10;99.90;;;;;;5092480;28;20139;-75
2022/01/04 09:18:48;;;;;;;41.75;31.50;;;8.10;99.90;;;;;;5092427;28;20048;-74
2022/01/04 09:21:18;;;;;;;44.20;31.90;;;8.10;99.90;;;;;;5092004;28;20044;-74
2022/01/04 09:23:46;;;;;;;41.22;31.48;;;8.10;99.90;;;;;;5092448;28;20139;-77
2022/01/04 09:26:13;;;;;;;41.65;31.67;;;8.20;99.90;;;;;;5095376;28;20047;-84
2022/01/04 09:28:39;;;;;;;44.03;32.97;;;8.20;99.90;;;;;;5096275;28;20075;-74
2022/01/04 09:31:05;;;;;;;42.70;31.77;;;8.20;99.90;;;;;;5095296;28;20044;-74
2022/01/04 09:33:31;;;;;;;42.85;32.13;;;8.20;99.90;;;;;;5096080;28;20401;-75
2022/01/04 09:35:57;;;;;;;45.65;32.45;;;8.20;99.90;;;;;;5096273;28;20083;-74
2022/01/04 09:38:24;;;;;;;43.17;32.75;;;8.30;99.90;;;;;;5095517;28;20051;-75
2022/01/04 09:40:50;;;;;;;44.22;32.28;;;8.30;99.90;;;;;;5094227;28;20040;-74
2022/01/04 09:43:17;;;;;;;42.05;31.73;;;8.30;99.90;;;;;;5094010;28;20062;-74
2022/01/04 09:45:43;;;;;;;45.83;31.73;;;8.30;99.90;;;;;;5095002;28;20618;-74
2022/01/04 09:48:09;;;;;;;43.50;31.38;;;8.30;99.90;;;;;;5093161;28;20126;-74
2022/01/04 09:50:37;;;;;;;44.63;32.30;;;8.30;99.90;;;;;;5093545;28;20051;-74
2022/01/04 09:53:06;;;;;;;48.72;32.85;;;8.30;99.90;;;;;;5095071;28;20050;-74
2022/01/04 09:55:34;;;;;;;44.33;32.58;;;8.30;99.90;;;;;;5094910;28;20040;-74
2022/01/04 09:58:01;;;;;;;47.40;31.98;;;8.20;99.90;;;;;;5095785;28;20044;-74
2022/01/04 10:00:27;;;;;;;48.10;32.92;;;8.30;99.90;;;;;;5094811;28;20095;-74
2022/01/04 10:03:11;;;;;;;48.25;33.17;;;8.20;99.90;;;;;;5095329;28;20412;-74
2022/01/04 10:05:37;;;;;;;48.33;31.15;;;8.20;99.90;;;;;;5095332;28;20040;-73
2022/01/04 10:08:05;;;;;;;46.70;32.30;;;8.20;99.90;;;;;;5095149;28;20051;-73
2022/01/04 10:10:32;;;;;;;46.60;32.22;;;8.20;99.90;;;;;;5094564;28;20493;-74
2022/01/04 10:13:01;;;;;;;46.33;31.10;;;8.20;99.90;;;;;;5095349;28;20126;-79
2022/01/04 10:15:36;;;;;;;41.70;29.08;;;8.20;99.90;;;;;;5076685;28;20040;-74
2022/01/04 10:18:14;;;;;;;21.33;16.63;;;8.20;99.90;;;;;;5094956;28;20460;-75
2022/01/04 10:20:40;;;;;;;6.32;5.40;;;8.10;99.90;;;;;;5095210;28;20051;-74
2022/01/04 10:23:18;;;;;;;5.25;3.80;;;8.00;99.90;;;;;;5095161;28;20094;-75
2022/01/04 10:25:45;;;;;;;4.72;2.90;;;7.90;99.90;;;;;;5090484;28;20062;-74
2022/01/04 10:28:12;;;;;;;5.45;2.88;;;7.80;99.90;;;;;;5088782;28;20047;-74
2022/01/04 10:30:44;;;;;;;4.00;2.97;;;7.60;99.90;;;;;;5090572;28;20056;-75
2022/01/04 10:33:19;;;;;;;4.65;3.05;;;7.60;99.90;;;;;;5091818;28;20044;-74
2022/01/04 10:35:48;;;;;;;4.65;2.90;;;7.50;99.90;;;;;;5090742;28;20083;-75
2022/01/04 10:38:43;;;;;;;4.50;3.20;;;7.50;99.90;;;;;;5090769;28;20048;-73
2022/01/04 10:41:17;;;;;;;6.55;3.13;;;7.50;99.90;;;;;;5086394;28;20048;-73
2022/01/04 10:43:44;;;;;;;3.97;2.67;;;7.40;99.90;;;;;;5091684;28;20048;-74
2022/01/04 10:46:18;;;;;;;4.63;3.20;;;7.40;99.90;;;;;;5090689;28;20400;-73
2022/01/04 10:48:46;;;;;;;4.95;3.10;;;7.40;99.90;;;;;;5092273;28;20112;-74
2022/01/04 10:51:13;;;;;;;6.00;3.65;;;7.40;99.90;;;;;;5091484;28;20040;-74
2022/01/04 10:53:49;;;;;;;6.45;3.97;;;7.40;99.90;;;;;;5091522;28;20040;-73
2022/01/04 10:56:22;;;;;;;7.82;5.50;;;7.40;99.90;;;;;;5092183;28;20044;-73
2022/01/04 10:58:50;;;;;;;9.45;6.80;;;7.50;99.90;;;;;;5090987;28;20447;-74
2022/01/04 11:01:19;;;;;;;10.15;6.72;;;7.40;99.90;;;;;;5091389;28;20048;-74
2022/01/04 11:03:56;;;;;;;8.65;7.22;;;7.40;99.90;;;;;;5091446;28;20051;-73
2022/01/04 11:06:35;;;;;;;11.20;7.32;;;7.40;99.90;;;;;;5090314;28;20039;-74
2022/01/04 11:09:02;;;;;;;9.48;7.32;;;7.50;99.90;;;;;;5091495;28;20532;-74
2022/01/04 11:11:28;;;;;;;10.82;7.80;;;7.50;99.90;;;;;;5090530;28;20059;-74
2022/01/04 11:13:54;;;;;;;10.90;8.20;;;7.50;99.90;;;;;;5090602;28;20477;-74
2022/01/04 11:16:26;;;;;;;12.35;9.00;;;7.50;99.90;;;;;;5090621;28;20505;-74
2022/01/04 11:18:53;;;;;;;12.20;7.85;;;7.50;99.90;;;;;;5090955;28;20451;-74
2022/01/04 11:21:31;;;;;;;11.43;7.72;;;7.50;99.90;;;;;;5088773;28;20393;-73
2022/01/04 11:23:59;;;;;;;13.13;8.70;;;7.40;99.90;;;;;;5090988;28;20504;-74
2022/01/04 11:26:27;;;;;;;15.95;9.63;;;7.40;99.90;;;;;;5090315;28;20085;-74
2022/01/04 11:28:54;;;;;;;14.50;9.45;;;7.50;99.90;;;;;;5089871;28;20040;-75
2022/01/04 11:31:45;;;;;;;11.63;7.43;;;7.50;99.90;;;;;;5090808;28;20509;-74
2022/01/04 11:34:18;;;;;;;11.23;7.90;;;7.50;99.90;;;;;;5091460;28;20039;-74
2022/01/04 11:36:53;;;;;;;8.20;5.50;;;7.50;99.90;;;;;;5091428;28;20036;-74
2022/01/04 11:39:26;;;;;;;6.65;3.90;;;7.50;99.90;;;;;;5090767;28;20429;-74
2022/01/04 11:41:52;;;;;;;6.05;3.22;;;7.40;99.90;;;;;;5090797;28;20089;-74
2022/01/04 11:44:21;;;;;;;5.05;2.72;;;7.30;99.90;;;;;;5090549;28;20439;-74
2022/01/04 11:47:18;;;;;;;3.97;2.42;;;7.30;99.90;;;;;;5090268;28;20492;-73
2022/01/04 11:50:15;;;;;;;4.88;2.60;;;7.30;99.90;;;;;;5089550;28;20512;-75
2022/01/04 11:52:49;;;;;;;4.45;2.22;;;7.20;99.90;;;;;;5089923;28;20505;-74
2022/01/04 11:55:54;;;;;;;5.95;2.30;;;7.10;99.90;;;;;;5091314;28;20044;-74
2022/01/04 11:58:25;;;;;;;3.72;1.70;;;7.10;99.90;;;;;;5078907;28;20114;-75
2022/01/04 12:01:00;;;;;;;3.28;1.42;;;7.10;99.90;;;;;;5090916;28;20039;-74
2022/01/04 12:03:39;;;;;;;4.35;1.60;;;7.00;99.90;;;;;;5090639;28;20100;-75
2022/01/04 12:06:07;;;;;;;3.38;1.38;;;6.90;99.90;;;;;;5090372;28;20089;-74
2022/01/04 12:08:33;;;;;;;2.65;1.30;;;6.90;99.90;;;;;;5089354;28;20448;-75
2022/01/04 12:10:59;;;;;;;4.55;1.65;;;6.90;99.90;;;;;;5090243;28;20097;-74
2022/01/04 12:13:45;;;;;;;3.38;1.55;;;6.90;99.90;;;;;;5089507;28;20104;-74
2022/01/04 12:16:11;;;;;;;2.80;1.42;;;6.90;99.90;;;;;;5090992;28;20051;-74
2022/01/04 12:18:37;;;;;;;2.90;1.50;;;6.90;99.90;;;;;;5088575;28;20044;-75
2022/01/04 12:21:14;;;;;;;2.88;1.67;;;6.90;99.90;;;;;;5090573;28;20477;-75
2022/01/04 12:23:40;;;;;;;3.00;1.48;;;6.90;99.90;;;;;;5069679;28;20127;-73
2022/01/04 12:26:05;;;;;;;3.30;1.80;;;6.90;99.90;;;;;;5070197;28;20509;-75
2022/01/04 12:28:37;;;;;;;5.28;1.80;;;6.80;99.90;;;;;;5069981;28;20040;-75
2022/01/04 12:31:16;;;;;;;3.25;1.80;;;6.90;99.90;;;;;;5070312;28;20039;-74
2022/01/04 12:33:46;;;;;;;4.40;2.13;;;6.90;99.90;;;;;;5087583;28;20055;-75
2022/01/04 12:36:25;;;;;;;3.20;1.90;;;6.80;99.90;;;;;;5090818;28;20102;-75
2022/01/04 12:38:53;;;;;;;2.58;1.48;;;6.70;99.90;;;;;;5089648;28;20495;-74
2022/01/04 12:41:20;;;;;;;2.03;1.35;;;6.70;99.90;;;;;;5090076;28;20571;-74
2022/01/04 12:43:47;;;;;;;1.30;1.20;;;6.70;99.90;;;;;;5082869;28;20133;-74
2022/01/04 12:46:14;;;;;;;2.15;1.30;;;6.60;99.90;;;;;;5078514;28;20052;-74
2022/01/04 12:48:51;;;;;;;2.08;1.40;;;6.50;99.90;;;;;;5069399;28;20052;-75
2022/01/04 12:51:30;;;;;;;2.13;0.98;;;6.60;99.90;;;;;;5069852;28;20485;-73